createdAt,value
2022-11-04T00:02:55.226Z,7.75
2022-11-04T00:06:03.226Z,7.74
2022-11-04T00:09:11.056Z,7.72
2022-11-04T00:12:26.359Z,7.71
2022-11-04T00:15:50.135Z,7.69
2022-11-04T00:18:56.247Z,7.67
2022-11-04T00:22:19.975Z,7.66
2022-11-04T00:25:44.068Z,7.64
2022-11-04T00:28:53.192Z,7.64
2022-11-04T00:32:17.275Z,7.66
2022-11-04T00:35:24.259Z,7.66
2022-11-04T00:38:30.393Z,7.62
2022-11-04T00:41:36.401Z,7.61
2022-11-04T00:44:42.485Z,7.58
2022-11-04T00:47:48.738Z,7.54
2022-11-04T00:50:54.753Z,7.51
2022-11-04T00:54:01.096Z,7.50
2022-11-04T00:57:05.571Z,7.47
2022-11-04T01:00:14.239Z,7.46
2022-11-04T01:03:20.347Z,7.45
2022-11-04T01:06:27.886Z,7.43
2022-11-04T01:09:34.233Z,7.41
2022-11-04T01:12:38.642Z,7.41
2022-11-04T01:15:44.806Z,7.39
2022-11-04T01:18:51.059Z,7.36
2022-11-04T01:21:55.504Z,7.26
2022-11-04T01:25:01.606Z,7.23
2022-11-04T01:28:07.921Z,7.25
2022-11-04T01:31:16.182Z,7.28
2022-11-04T01:34:22.259Z,7.26
2022-11-04T01:37:28.276Z,7.22
2022-11-04T01:40:39.690Z,7.25
2022-11-04T01:43:52.974Z,7.30
2022-11-04T01:46:59.964Z,7.39
2022-11-04T01:50:09.835Z,7.44
2022-11-04T01:53:20.268Z,7.45
2022-11-04T01:56:27.567Z,7.45
2022-11-04T01:59:37.854Z,7.42
2022-11-04T02:02:56.076Z,7.43
2022-11-04T02:06:03.783Z,7.44
2022-11-04T02:12:38.519Z,7.46
2022-11-04T02:15:54.110Z,7.48
2022-11-04T02:19:11.770Z,7.49
2022-11-04T02:22:38.187Z,7.51
2022-11-04T02:26:18.975Z,7.51
2022-11-04T02:29:47.654Z,7.50
2022-11-04T02:33:20.462Z,7.51
2022-11-04T02:36:35.298Z,7.47
2022-11-04T02:39:50.989Z,7.47
2022-11-04T02:43:02.698Z,7.46
2022-11-04T02:46:17.465Z,7.44
2022-11-04T02:49:29.841Z,7.39
2022-11-04T02:52:48.699Z,7.33
2022-11-04T02:55:59.922Z,7.31
2022-11-04T02:59:11.101Z,7.31
2022-11-04T03:02:21.448Z,7.38
2022-11-04T03:05:32.519Z,7.44
2022-11-04T03:08:41.584Z,7.48
2022-11-04T03:11:52.799Z,7.51
2022-11-04T03:15:05.167Z,7.53
2022-11-04T03:18:19.725Z,7.57
2022-11-04T03:21:29.425Z,7.60
2022-11-04T03:24:35.820Z,7.62
2022-11-04T03:27:45.772Z,7.65
2022-11-04T03:30:54.349Z,7.62
2022-11-04T03:34:00.655Z,7.59
2022-11-04T03:37:05.292Z,7.56
2022-11-04T03:40:13.872Z,7.55
2022-11-04T03:43:23.907Z,7.59
2022-11-04T03:46:30.117Z,7.61
2022-11-04T03:49:36.390Z,7.63
2022-11-04T03:52:41.241Z,7.66
2022-11-04T03:56:00.806Z,7.69
2022-11-04T03:59:19.360Z,7.68
2022-11-04T04:02:35.356Z,7.66
2022-11-04T04:05:46.746Z,7.68
2022-11-04T04:08:57.179Z,7.70
2022-11-04T04:12:10.332Z,7.71
2022-11-04T04:15:23.990Z,7.69
2022-11-04T04:18:37.305Z,7.66
2022-11-04T04:21:48.486Z,7.62
2022-11-04T04:25:18.306Z,7.60
2022-11-04T04:28:25.577Z,7.60
2022-11-04T04:31:57.746Z,7.60
2022-11-04T04:35:21.647Z,7.59
2022-11-04T04:38:47.061Z,7.53
2022-11-04T04:42:12.579Z,7.51
2022-11-04T04:45:25.505Z,7.52
2022-11-04T04:48:31.751Z,7.55
2022-11-04T04:51:40.652Z,7.60
2022-11-04T04:54:47.584Z,7.63
2022-11-04T04:57:53.852Z,7.67
2022-11-04T05:00:58.416Z,7.72
2022-11-04T05:04:04.612Z,7.76
2022-11-04T05:07:10.650Z,7.81
2022-11-04T05:10:18.031Z,7.86
2022-11-04T05:13:30.423Z,7.88
2022-11-04T05:16:40.547Z,7.88
2022-11-04T05:19:47.230Z,7.92
2022-11-04T05:22:51.887Z,8.00
2022-11-04T05:26:01.160Z,8.09
2022-11-04T05:29:07.139Z,8.16
2022-11-04T05:32:13.325Z,8.23
2022-11-04T05:35:19.898Z,8.28
2022-11-04T05:38:26.250Z,8.33
2022-11-04T05:41:32.473Z,8.39
2022-11-04T05:44:36.974Z,8.42
2022-11-04T05:47:43.082Z,8.44
2022-11-04T05:50:49.249Z,8.44
2022-11-04T05:53:55.936Z,8.43
2022-11-04T05:57:01.976Z,8.47
2022-11-04T06:00:10.120Z,8.51
2022-11-04T06:03:16.575Z,8.56
2022-11-04T06:06:24.485Z,8.58
2022-11-04T06:09:40.191Z,8.60
2022-11-04T06:12:46.703Z,8.61
2022-11-04T06:15:52.770Z,8.63
2022-11-04T06:19:01.716Z,8.65
2022-11-04T06:22:13.038Z,8.67
2022-11-04T06:25:19.256Z,8.69
2022-11-04T06:28:23.826Z,8.70
2022-11-04T06:31:29.899Z,8.72
2022-11-04T06:34:36.006Z,8.72
2022-11-04T06:37:42.086Z,8.73
2022-11-04T06:40:48.153Z,8.75
2022-11-04T06:43:54.283Z,8.76
2022-11-04T06:47:00.548Z,8.78
2022-11-04T06:50:05.339Z,8.81
2022-11-04T06:53:11.711Z,8.83
2022-11-04T06:56:17.987Z,8.86
2022-11-04T06:59:24.117Z,8.88
2022-11-04T07:02:30.514Z,8.90
2022-11-04T07:05:37.703Z,8.91
2022-11-04T07:08:43.825Z,8.92
2022-11-04T07:11:50.735Z,8.94
2022-11-04T07:14:56.926Z,8.95
2022-11-04T07:18:01.732Z,8.97
2022-11-04T07:21:10.217Z,8.99
2022-11-04T07:24:16.631Z,9.02
2022-11-04T07:27:22.783Z,9.08
2022-11-04T07:30:28.971Z,9.13
2022-11-04T07:33:35.998Z,9.17
2022-11-04T07:36:42.021Z,9.22
2022-11-04T07:39:48.114Z,9.25
2022-11-04T07:42:54.217Z,9.31
2022-11-04T07:46:05.437Z,9.35
2022-11-04T07:49:11.528Z,9.40
2022-11-04T07:52:17.694Z,9.46
2022-11-04T07:55:22.166Z,9.52
2022-11-04T07:58:31.152Z,9.56
2022-11-04T08:01:37.368Z,9.60
2022-11-04T08:04:43.490Z,9.63
2022-11-04T08:07:49.542Z,9.67
2022-11-04T08:11:00.631Z,9.72
2022-11-04T08:14:07.732Z,9.77
2022-11-04T08:17:13.819Z,9.82
2022-11-04T08:20:20.238Z,9.89
2022-11-04T08:23:26.434Z,9.99
2022-11-04T08:26:33.068Z,10.08
2022-11-04T08:29:39.770Z,10.19
2022-11-04T08:32:45.744Z,10.35
2022-11-04T08:35:51.986Z,10.52
2022-11-04T08:38:56.964Z,10.68
2022-11-04T08:42:03.331Z,10.84
2022-11-04T08:45:10.729Z,10.97
2022-11-04T08:48:17.654Z,11.08
2022-11-04T08:51:26.614Z,11.20
2022-11-04T08:54:32.826Z,11.31
2022-11-04T08:57:37.533Z,11.41
2022-11-04T09:00:43.760Z,11.54
2022-11-04T09:03:48.712Z,11.66
2022-11-04T09:06:56.415Z,11.77
2022-11-04T09:10:02.805Z,11.89
2022-11-04T09:13:10.898Z,11.99
2022-11-04T09:16:17.835Z,12.08
2022-11-04T09:19:23.918Z,12.19
2022-11-04T09:22:30.140Z,12.28
2022-11-04T09:25:34.670Z,12.38
2022-11-04T09:28:41.645Z,12.48
2022-11-04T09:31:50.022Z,12.55
2022-11-04T09:34:56.244Z,12.60
2022-11-04T09:38:02.298Z,12.64
2022-11-04T09:41:31.962Z,12.69
2022-11-04T09:45:14.935Z,12.75
2022-11-04T09:48:21.768Z,12.82
2022-11-04T09:55:02.327Z,12.96
2022-11-04T09:58:11.082Z,13.04
2022-11-04T10:01:29.135Z,13.10
2022-11-04T10:04:50.973Z,13.18
2022-11-04T10:08:22.002Z,13.26
2022-11-04T10:11:36.270Z,13.37
2022-11-04T10:14:58.018Z,13.45
2022-11-04T10:18:17.264Z,13.54
2022-11-04T10:21:37.469Z,13.62
2022-11-04T10:24:51.189Z,13.69
2022-11-04T10:27:58.172Z,13.76
2022-11-04T10:31:05.317Z,13.85
2022-11-04T10:34:18.905Z,13.91
2022-11-04T10:37:26.647Z,13.99
2022-11-04T10:40:39.007Z,14.08
2022-11-04T10:43:45.697Z,14.17
2022-11-04T10:47:00.676Z,14.21
2022-11-04T10:50:28.875Z,14.29
2022-11-04T10:53:37.839Z,14.40
2022-11-04T10:56:47.058Z,14.49
2022-11-04T10:59:58.781Z,14.59
2022-11-04T11:03:05.868Z,14.69
2022-11-04T11:06:22.340Z,14.77
2022-11-04T11:09:30.773Z,14.85
2022-11-04T11:12:51.788Z,14.93
2022-11-04T11:16:13.453Z,15.00
2022-11-04T11:19:22.389Z,15.07
2022-11-04T11:22:38.863Z,15.13
2022-11-04T11:25:51.900Z,15.19
2022-11-04T11:29:02.586Z,15.25
2022-11-04T11:32:22.268Z,15.29
2022-11-04T11:35:33.943Z,15.35
2022-11-04T11:38:40.810Z,15.41
2022-11-04T11:41:57.254Z,15.47
2022-11-04T11:45:10.663Z,15.53
2022-11-04T11:48:34.038Z,15.60
2022-11-04T11:51:41.669Z,15.64
2022-11-04T11:54:52.705Z,15.68
2022-11-04T12:01:42.648Z,15.70
2022-11-04T12:12:22.387Z,15.73
2022-11-04T12:15:55.506Z,15.76
2022-11-04T12:19:21.764Z,15.78
2022-11-04T12:22:39.274Z,15.81
2022-11-04T12:25:54.010Z,15.82
2022-11-04T12:29:14.420Z,15.86
2022-11-04T12:32:29.534Z,15.92
2022-11-04T12:35:50.723Z,15.96
2022-11-04T12:39:25.455Z,15.98
2022-11-04T12:42:42.168Z,16.00
2022-11-04T12:46:01.287Z,16.03
2022-11-04T12:49:37.064Z,16.05
2022-11-04T12:53:03.760Z,16.04
2022-11-04T12:56:13.205Z,16.02
2022-11-04T12:59:40.673Z,15.99
2022-11-04T13:02:51.322Z,15.93
2022-11-04T13:06:04.631Z,15.87
2022-11-04T13:09:15.210Z,15.81
2022-11-04T13:12:24.856Z,15.76
2022-11-04T13:15:35.219Z,15.72
2022-11-04T13:18:45.845Z,15.68
2022-11-04T13:21:52.889Z,15.64
2022-11-04T13:25:03.683Z,15.57
2022-11-04T13:28:14.572Z,15.51
2022-11-04T13:31:29.384Z,15.46
2022-11-04T13:34:46.140Z,15.42
2022-11-04T13:38:00.446Z,15.36
2022-11-04T13:41:31.222Z,15.32
2022-11-04T13:44:43.657Z,15.28
2022-11-04T13:47:54.402Z,15.25
2022-11-04T13:51:04.083Z,15.21
2022-11-04T13:54:24.928Z,15.16
2022-11-04T13:57:32.942Z,15.11
2022-11-04T14:00:40.202Z,15.05
2022-11-04T14:04:03.119Z,15.00
2022-11-04T14:07:10.838Z,14.96
2022-11-04T14:10:46.742Z,14.91
2022-11-04T14:14:17.482Z,14.83
2022-11-04T14:17:58.466Z,14.77
2022-11-04T14:21:11.535Z,14.70
2022-11-04T14:24:20.334Z,14.63
2022-11-04T14:27:36.118Z,14.54
2022-11-04T14:30:45.889Z,14.46
2022-11-04T14:33:56.213Z,14.37
2022-11-04T14:37:04.157Z,14.30
2022-11-04T14:40:28.829Z,14.25
2022-11-04T14:43:36.929Z,14.21
2022-11-04T14:46:46.790Z,14.14
2022-11-04T14:50:01.962Z,14.04
2022-11-04T14:53:12.604Z,13.96
2022-11-04T14:56:24.320Z,13.88
2022-11-04T14:59:31.554Z,13.82
2022-11-04T15:02:38.633Z,13.79
2022-11-04T15:05:50.860Z,13.75
2022-11-04T15:08:57.890Z,13.72
2022-11-04T15:12:30.364Z,13.69
2022-11-04T15:15:40.327Z,13.62
2022-11-04T15:18:47.134Z,13.55
2022-11-04T15:21:53.279Z,13.50
2022-11-04T15:25:00.358Z,13.45
2022-11-04T15:28:15.014Z,13.39
2022-11-04T15:31:23.737Z,13.33
2022-11-04T15:34:31.824Z,13.30
2022-11-04T15:37:41.699Z,13.27
2022-11-04T15:40:48.772Z,13.25
2022-11-04T15:43:55.699Z,13.21
2022-11-04T15:47:03.820Z,13.19
2022-11-04T15:50:23.657Z,13.17
2022-11-04T15:53:29.885Z,13.13
2022-11-04T15:56:42.249Z,13.09
2022-11-04T15:59:53.821Z,13.06
2022-11-04T16:03:02.041Z,13.04
2022-11-04T16:06:10.018Z,13.00
2022-11-04T16:09:28.199Z,12.95
2022-11-04T16:12:38.334Z,12.93
2022-11-04T16:15:48.186Z,12.93
2022-11-04T16:18:57.443Z,12.93
2022-11-04T16:22:09.275Z,12.93
2022-11-04T16:25:24.801Z,12.91
2022-11-04T16:28:36.394Z,12.88
2022-11-04T16:31:42.701Z,12.82
2022-11-04T16:34:53.966Z,12.77
2022-11-04T16:38:03.613Z,12.73
2022-11-04T16:41:09.883Z,12.71
2022-11-04T16:44:22.829Z,12.69
2022-11-04T16:47:30.124Z,12.67
2022-11-04T16:50:36.207Z,12.65
2022-11-04T16:53:40.514Z,12.63
2022-11-04T16:56:46.826Z,12.65
2022-11-04T16:59:53.009Z,12.64
2022-11-04T17:02:57.529Z,12.62
2022-11-04T17:06:03.649Z,12.58
2022-11-04T17:09:12.030Z,12.53
2022-11-04T17:12:18.080Z,12.49
2022-11-04T17:15:24.520Z,12.46
2022-11-04T17:18:33.829Z,12.43
2022-11-04T17:21:40.506Z,12.41
2022-11-04T17:24:46.576Z,12.38
2022-11-04T17:27:51.135Z,12.35
2022-11-04T17:30:57.254Z,12.32
2022-11-04T17:34:01.831Z,12.32
2022-11-04T17:37:07.903Z,12.32
2022-11-04T17:40:15.099Z,12.30
2022-11-04T17:43:38.629Z,12.30
2022-11-04T17:46:47.866Z,12.30
2022-11-04T17:49:53.990Z,12.31
2022-11-04T17:52:58.554Z,12.30
2022-11-04T17:56:04.837Z,12.26
2022-11-04T17:59:12.528Z,12.23
2022-11-04T18:02:18.966Z,12.18
2022-11-04T18:05:25.226Z,12.15
2022-11-04T18:08:29.684Z,12.12
2022-11-04T18:11:53.355Z,12.09
2022-11-04T18:14:59.433Z,12.08
2022-11-04T18:18:04.045Z,12.07
2022-11-04T18:21:11.582Z,12.03
2022-11-04T18:24:19.430Z,12.03
2022-11-04T18:27:25.707Z,12.05
2022-11-04T18:30:31.906Z,12.05
2022-11-04T18:33:36.481Z,12.06
2022-11-04T18:36:42.921Z,12.06
2022-11-04T18:39:48.995Z,12.06
2022-11-04T18:42:53.561Z,12.05
2022-11-04T18:46:00.031Z,12.02
2022-11-04T18:49:06.158Z,11.96
2022-11-04T18:52:10.652Z,11.92
2022-11-04T18:55:16.966Z,11.93
2022-11-04T18:58:25.277Z,11.91
2022-11-04T19:01:33.900Z,11.92
2022-11-04T19:04:40.266Z,11.92
2022-11-04T19:07:44.733Z,11.90
2022-11-04T19:11:00.692Z,11.88
2022-11-04T19:14:09.831Z,11.86
2022-11-04T19:17:16.217Z,11.85
2022-11-04T19:20:23.809Z,11.85
2022-11-04T19:23:31.402Z,11.84
2022-11-04T19:26:38.389Z,11.84
2022-11-04T19:29:44.507Z,11.82
2022-11-04T19:32:49.082Z,11.81
2022-11-04T19:35:56.324Z,11.77
2022-11-04T19:39:03.353Z,11.74
2022-11-04T19:42:28.256Z,11.74
2022-11-04T19:45:34.707Z,11.72
2022-11-04T19:48:40.809Z,11.69
2022-11-04T19:51:45.729Z,11.66
2022-11-04T19:54:51.845Z,11.65
2022-11-04T19:57:56.530Z,11.62
2022-11-04T20:01:07.847Z,11.60
2022-11-04T20:04:14.909Z,11.59
2022-11-04T20:07:21.057Z,11.57
2022-11-04T20:10:25.555Z,11.52
2022-11-04T20:13:47.835Z,11.44
2022-11-04T20:16:54.119Z,11.40
2022-11-04T20:20:00.200Z,11.40
2022-11-04T20:23:06.222Z,11.41
2022-11-04T20:26:20.245Z,11.42
2022-11-04T20:29:26.916Z,11.41
2022-11-04T20:32:31.453Z,11.39
2022-11-04T20:35:38.238Z,11.39
2022-11-04T20:38:44.533Z,11.36
2022-11-04T20:41:50.666Z,11.36
2022-11-04T20:44:56.811Z,11.35
2022-11-04T20:48:01.353Z,11.35
2022-11-04T20:51:12.228Z,11.33
2022-11-04T20:54:18.438Z,11.29
2022-11-04T20:57:22.878Z,11.27
2022-11-04T21:00:29.797Z,11.17
2022-11-04T21:03:36.183Z,11.11
2022-11-04T21:06:42.943Z,11.12
2022-11-04T21:09:51.237Z,11.15
2022-11-04T21:12:57.233Z,11.12
2022-11-04T21:16:03.842Z,11.10
2022-11-04T21:19:11.981Z,11.10
2022-11-04T21:22:18.030Z,11.11
2022-11-04T21:25:24.222Z,11.14
2022-11-04T21:28:28.693Z,11.16
2022-11-04T21:31:36.095Z,11.15
2022-11-04T21:34:42.192Z,11.14
2022-11-04T21:37:46.640Z,11.15
2022-11-04T21:40:52.982Z,11.14
2022-11-04T21:44:00.310Z,11.13
2022-11-04T21:47:06.513Z,11.12
2022-11-04T21:50:16.765Z,11.13
2022-11-04T21:53:24.054Z,11.08
2022-11-04T21:56:33.273Z,11.03
2022-11-04T21:59:39.370Z,11.04
2022-11-04T22:02:47.491Z,11.06
2022-11-04T22:06:01.973Z,11.05
2022-11-04T22:09:10.186Z,11.04
2022-11-04T22:12:16.209Z,11.04
2022-11-04T22:15:36.848Z,11.06
2022-11-04T22:18:43.832Z,11.06
2022-11-04T22:21:50.262Z,11.05
2022-11-04T22:25:03.428Z,11.03
2022-11-04T22:28:09.688Z,11.02
2022-11-04T22:31:18.008Z,11.03
2022-11-04T22:34:25.072Z,11.04
2022-11-04T22:37:31.274Z,11.06
2022-11-04T22:40:35.886Z,11.07
2022-11-04T22:43:42.798Z,11.06
2022-11-04T22:46:48.907Z,11.07
2022-11-04T22:49:53.377Z,11.08
2022-11-04T22:52:59.400Z,11.08
2022-11-04T22:56:06.934Z,11.09
2022-11-04T22:59:13.215Z,11.09
2022-11-04T23:02:19.508Z,11.07
2022-11-04T23:05:27.844Z,11.06
2022-11-04T23:08:35.348Z,11.06
2022-11-04T23:11:59.029Z,11.07
2022-11-04T23:15:23.112Z,11.09
2022-11-04T23:18:44.843Z,11.08
2022-11-04T23:22:08.721Z,11.08
2022-11-04T23:25:15.395Z,11.07
2022-11-04T23:28:35.281Z,11.06
2022-11-04T23:31:41.702Z,11.05
2022-11-04T23:35:05.530Z,11.05
2022-11-04T23:38:11.920Z,11.05
2022-11-04T23:41:35.881Z,11.05
2022-11-04T23:44:59.657Z,11.04
2022-11-04T23:48:29.782Z,11.04
2022-11-04T23:51:53.560Z,11.04
2022-11-04T23:55:17.647Z,10.98
2022-11-04T23:58:41.521Z,10.96
